Time;durP1;ratioP1;P1;durP2;ratioP2;P2;SDS_P1;SDS_P2;PMS_P1;PMS_P2;Temp;Humidity;BMP_temperature;BMP_pressure;BME280_temperature;BME280_humidity;BME280_pressure;Samples;Min_cycle;Max_cycle;Signal;HPM_P1;HPM_P2
2022/03/04 00:00:41;;;;;;;57.20;29.45;;;;;;;2.28;60.43;100284.34;5589963;31;34377;-63
2022/03/04 00:03:45;;;;;;;61.53;30.17;;;;;;;2.25;60.73;100284.59;5590176;31;34023;-62
2022/03/04 00:06:49;;;;;;;66.47;27.40;;;;;;;2.40;60.19;100282.59;5589901;31;33974;-62
2022/03/04 00:09:51;;;;;;;57.78;26.58;;;;;;;2.24;60.99;100288.16;5589768;31;34188;-62
2022/03/04 00:12:54;;;;;;;59.03;26.90;;;;;;;2.27;60.64;100281.88;5589076;31;34168;-63
2022/03/04 00:15:57;;;;;;;61.15;28.75;;;;;;;2.32;61.09;100283.19;5589830;31;34540;-63
2022/03/04 00:19:11;;;;;;;58.70;28.70;;;;;;;2.16;61.95;100285.31;5589620;31;34129;-62
2022/03/04 00:22:14;;;;;;;56.65;28.02;;;;;;;2.36;61.08;100287.25;5588849;31;34686;-62
2022/03/04 00:25:19;;;;;;;54.25;27.60;;;;;;;2.21;61.39;100287.56;5588800;31;34681;-63
2022/03/04 00:28:22;;;;;;;51.05;26.02;;;;;;;2.18;61.12;100286.84;5589780;31;34026;-63
2022/03/04 00:31:25;;;;;;;57.35;27.23;;;;;;;2.16;60.61;100286.16;5589415;31;34037;-62
2022/03/04 00:34:28;;;;;;;56.85;27.08;;;;;;;2.18;59.41;100288.63;5589788;31;33976;-63
2022/03/04 00:37:31;;;;;;;50.10;24.67;;;;;;;2.20;58.76;100294.59;5589642;31;34342;-63
2022/03/04 00:40:34;;;;;;;54.08;23.75;;;;;;;2.31;58.01;100284.16;5589571;31;33960;-63
2022/03/04 00:43:37;;;;;;;46.67;22.30;;;;;;;2.19;57.45;100282.44;5589514;31;33889;-62
2022/03/04 00:46:40;;;;;;;48.95;22.83;;;;;;;2.16;57.36;100282.69;5588674;31;34686;-62
2022/03/04 00:49:42;;;;;;;45.90;21.35;;;;;;;2.32;56.65;100277.97;5589411;31;34182;-63
2022/03/04 00:52:45;;;;;;;46.88;21.90;;;;;;;2.32;56.25;100284.97;5589260;31;34732;-62
2022/03/04 00:55:48;;;;;;;46.37;22.87;;;;;;;2.36;55.68;100282.00;5588132;31;34200;-62
2022/03/04 00:58:50;;;;;;;42.15;22.00;;;;;;;2.18;56.26;100275.53;5588492;31;35223;-62
2022/03/04 01:01:53;;;;;;;45.95;22.85;;;;;;;2.19;56.54;100274.59;5589265;31;34306;-62
2022/03/04 01:04:56;;;;;;;47.62;21.87;;;;;;;2.21;56.76;100275.31;5589151;31;34044;-63
2022/03/04 01:07:59;;;;;;;44.42;19.87;;;;;;;2.36;56.17;100276.78;5589198;31;33895;-62
2022/03/04 01:11:02;;;;;;;46.72;19.62;;;;;;;2.23;56.70;100277.84;5588306;31;34233;-62
2022/03/04 01:14:05;;;;;;;43.53;19.55;;;;;;;2.23;57.26;100273.41;5589328;31;34623;-62
2022/03/04 01:17:08;;;;;;;39.13;19.40;;;;;;;2.43;56.01;100269.25;5589028;31;34097;-62
2022/03/04 01:20:11;;;;;;;41.88;19.65;;;;;;;2.33;56.31;100271.75;5588826;31;34127;-63
2022/03/04 01:23:14;;;;;;;44.47;22.33;;;;;;;2.45;56.29;100262.12;5588933;31;34689;-63
2022/03/04 01:26:17;;;;;;;44.92;20.98;;;;;;;2.44;56.66;100261.28;5588734;31;34634;-63
2022/03/04 01:29:20;;;;;;;39.20;20.73;;;;;;;2.37;56.51;100270.56;5588748;31;33948;-62
2022/03/04 01:32:23;;;;;;;40.85;19.20;;;;;;;2.35;57.46;100264.63;5588577;31;34007;-62
2022/03/04 01:35:26;;;;;;;47.62;21.58;;;;;;;2.39;57.18;100252.97;5588681;31;34562;-63
2022/03/04 01:38:28;;;;;;;42.17;20.35;;;;;;;2.40;58.49;100256.41;5588937;31;34647;-62
2022/03/04 01:41:32;;;;;;;39.45;19.60;;;;;;;2.40;58.13;100262.50;5587936;31;33979;-62
2022/03/04 01:44:35;;;;;;;42.92;20.50;;;;;;;2.37;59.42;100254.06;5588497;31;34699;-62
2022/03/04 01:47:39;;;;;;;45.00;21.00;;;;;;;2.49;59.38;100259.16;5588910;31;33927;-62
2022/03/04 01:50:42;;;;;;;38.05;19.98;;;;;;;2.46;59.61;100262.03;5588214;31;34153;-63
2022/03/04 01:53:45;;;;;;;38.50;19.35;;;;;;;2.37;60.61;100269.75;5588390;31;35207;-62
2022/03/04 01:56:48;;;;;;;39.38;19.02;;;;;;;2.41;60.32;100272.03;5588464;31;34591;-62
2022/03/04 01:59:50;;;;;;;40.45;19.52;;;;;;;2.32;60.78;100264.03;5588301;31;33926;-63
2022/03/04 02:02:57;;;;;;;39.58;19.52;;;;;;;2.26;61.51;100262.72;5588204;31;34300;-62
2022/03/04 02:06:00;;;;;;;38.55;19.92;;;;;;;2.23;61.84;100272.59;5588159;31;34015;-63
2022/03/04 02:09:03;;;;;;;38.92;20.12;;;;;;;2.33;64.09;100263.06;5589886;31;33911;-62
2022/03/04 02:12:06;;;;;;;39.70;18.65;;;;;;;2.38;64.91;100268.78;5590908;31;34192;-62
2022/03/04 02:15:09;;;;;;;39.80;19.05;;;;;;;2.31;65.28;100271.06;5591126;31;34727;-63
2022/03/04 02:18:15;;;;;;;36.72;20.17;;;;;;;2.28;66.15;100266.03;5590031;31;34312;-62
2022/03/04 02:21:22;;;;;;;38.58;18.87;;;;;;;2.22;66.75;100263.06;5590962;31;34057;-62
2022/03/04 02:24:27;;;;;;;41.33;19.62;;;;;;;2.17;66.69;100271.28;5589861;31;34078;-63
2022/03/04 02:27:29;;;;;;;37.13;19.40;;;;;;;2.02;69.21;100268.03;5590969;31;34311;-62
2022/03/04 02:30:33;;;;;;;36.60;17.98;;;;;;;2.08;70.65;100267.56;5584885;31;155677;-63
2022/03/04 02:33:36;;;;;;;35.30;18.20;;;;;;;1.96;70.84;100270.28;5590660;31;33893;-63
2022/03/04 02:36:39;;;;;;;32.33;17.73;;;;;;;1.88;71.71;100270.03;5590671;31;33895;-63
2022/03/04 02:39:42;;;;;;;38.88;18.55;;;;;;;1.85;71.42;100283.31;5590822;31;33943;-62
2022/03/04 02:42:45;;;;;;;36.08;17.80;;;;;;;1.77;73.09;100277.84;5590582;31;34076;-63
2022/03/04 02:45:49;;;;;;;35.83;18.60;;;;;;;1.68;73.45;100284.59;5590500;31;33923;-62
2022/03/04 02:48:52;;;;;;;37.75;19.00;;;;;;;1.73;74.85;100285.09;5590581;31;33986;-62
2022/03/04 02:51:54;;;;;;;38.15;19.15;;;;;;;1.77;75.08;100289.13;5590220;31;34917;-63
2022/03/04 02:54:57;;;;;;;38.30;18.83;;;;;;;1.85;75.26;100288.56;5590473;31;34003;-62
2022/03/04 02:58:00;;;;;;;36.53;21.80;;;;;;;1.83;75.82;100293.09;5590681;31;33978;-62
2022/03/04 03:01:03;;;;;;;45.33;22.30;;;;;;;1.74;76.00;100289.38;5590413;31;34331;-63
2022/03/04 03:04:06;;;;;;;43.30;19.30;;;;;;;1.64;77.26;100288.37;5590284;31;34587;-62
2022/03/04 03:07:09;;;;;;;39.90;19.67;;;;;;;1.55;78.10;100286.47;5590626;31;34418;-62
2022/03/04 03:10:12;;;;;;;42.08;20.23;;;;;;;1.45;78.15;100286.28;5590334;31;34313;-62
2022/03/04 03:13:15;;;;;;;37.50;18.62;;;;;;;1.28;79.17;100279.66;5590203;31;33857;-63
2022/03/04 03:16:18;;;;;;;37.20;19.55;;;;;;;1.32;80.19;100282.88;5590531;31;34656;-62
2022/03/04 03:19:21;;;;;;;40.28;19.77;;;;;;;1.28;80.69;100300.56;5590016;31;34072;-62
2022/03/04 03:22:24;;;;;;;38.42;19.83;;;;;;;1.15;80.40;100291.97;5590456;31;34785;-62
2022/03/04 03:25:26;;;;;;;40.05;19.75;;;;;;;1.01;81.81;100299.13;5590186;31;34053;-62
2022/03/04 03:28:30;;;;;;;39.05;19.58;;;;;;;0.86;82.04;100293.19;5590200;31;34547;-62
2022/03/04 03:31:33;;;;;;;35.63;18.73;;;;;;;0.77;82.36;100289.47;5590299;31;35191;-62
2022/03/04 03:34:36;;;;;;;49.45;22.62;;;;;;;0.68;82.95;100287.47;5590443;31;34141;-62
2022/03/04 03:37:40;;;;;;;41.63;20.65;;;;;;;0.62;83.76;100293.12;5590147;31;34722;-62
2022/03/04 03:40:43;;;;;;;39.35;19.27;;;;;;;0.59;84.02;100302.94;5589991;31;33961;-62
2022/03/04 03:44:05;;;;;;;39.90;19.75;;;;;;;0.60;84.62;100297.63;5590005;31;33895;-63
2022/03/04 03:47:09;;;;;;;35.92;19.87;;;;;;;0.64;84.54;100287.78;5589947;31;33990;-62
2022/03/04 03:50:12;;;;;;;39.35;21.08;;;;;;;0.58;84.79;100296.88;5590337;31;34098;-63
2022/03/04 03:53:15;;;;;;;40.45;21.27;;;;;;;0.64;84.75;100298.22;5589879;31;34832;-62
2022/03/04 03:56:18;;;;;;;41.60;22.77;;;;;;;0.61;85.16;100291.47;5590216;31;34261;-63
2022/03/04 03:59:21;;;;;;;44.22;23.45;;;;;;;0.64;84.86;100287.78;5590161;31;33901;-62
2022/03/04 04:02:23;;;;;;;43.60;20.35;;;;;;;0.76;84.46;100289.56;5589921;31;34302;-62
2022/03/04 04:05:26;;;;;;;38.33;19.62;;;;;;;0.69;84.60;100293.53;5590174;31;34688;-62
2022/03/04 04:08:29;;;;;;;33.92;19.58;;;;;;;0.65;84.99;100292.91;5589336;31;34005;-62
2022/03/04 04:11:34;;;;;;;39.63;20.02;;;;;;;0.60;85.14;100288.94;5590039;31;33904;-62
2022/03/04 04:14:37;;;;;;;39.28;20.12;;;;;;;0.57;85.36;100297.84;5589973;31;34398;-63
2022/03/04 04:17:40;;;;;;;35.47;19.52;;;;;;;0.56;85.36;100296.16;5589670;31;34364;-62
2022/03/04 04:20:43;;;;;;;39.90;22.73;;;;;;;0.58;85.56;100293.47;5589704;31;33976;-62
2022/03/04 04:23:50;;;;;;;40.83;22.60;;;;;;;0.64;85.71;100300.84;5589829;31;34090;-63
2022/03/04 04:26:53;;;;;;;42.50;23.77;;;;;;;0.68;85.27;100299.69;5589578;31;34589;-62
2022/03/04 04:29:55;;;;;;;41.78;23.95;;;;;;;0.72;84.79;100311.59;5588848;31;33860;-63
2022/03/04 04:32:58;;;;;;;41.20;22.75;;;;;;;0.73;84.87;100308.03;5589476;31;34555;-62
2022/03/04 04:36:01;;;;;;;38.70;19.65;;;;;;;0.81;84.37;100308.34;5589459;31;33913;-63
2022/03/04 04:39:03;;;;;;;36.58;19.33;;;;;;;0.95;83.82;100316.03;5589573;31;34119;-62
2022/03/04 04:42:06;;;;;;;40.75;20.17;;;;;;;1.23;82.61;100323.59;5589911;31;34046;-62
2022/03/04 04:45:09;;;;;;;45.33;22.52;;;;;;;1.43;81.35;100316.09;5589518;31;34334;-63
2022/03/04 04:48:12;;;;;;;34.67;18.50;;;;;;;1.66;79.39;100329.16;5589415;31;34110;-63
2022/03/04 04:51:14;;;;;;;43.70;20.40;;;;;;;1.77;78.56;100325.75;5589379;31;34590;-62
2022/03/04 04:54:18;;;;;;;38.75;19.65;;;;;;;1.91;78.12;100329.97;5589687;31;34435;-61
2022/03/04 04:57:20;;;;;;;39.63;21.85;;;;;;;1.86;78.13;100334.69;5589354;31;34411;-62
2022/03/04 05:00:24;;;;;;;41.37;22.08;;;;;;;1.95;77.35;100337.47;5589252;31;34692;-63
2022/03/04 05:03:27;;;;;;;41.85;22.05;;;;;;;1.97;77.14;100345.22;5588256;31;32814;-62
2022/03/04 05:06:30;;;;;;;46.25;22.50;;;;;;;2.00;77.57;100355.44;5589250;31;34703;-63
2022/03/04 05:09:33;;;;;;;40.00;22.75;;;;;;;2.05;77.62;100355.94;5589081;31;34678;-62
2022/03/04 05:12:36;;;;;;;43.40;21.37;;;;;;;2.23;77.51;100354.53;5588995;31;34037;-62
2022/03/04 05:15:41;;;;;;;37.90;20.42;;;;;;;2.18;77.88;100364.53;5589017;31;34571;-62
2022/03/04 05:18:44;;;;;;;41.67;21.87;;;;;;;2.05;78.43;100364.62;5589039;31;33934;-62
2022/03/04 05:21:46;;;;;;;44.17;21.50;;;;;;;2.01;78.95;100367.56;5588974;31;33999;-63
2022/03/04 05:24:49;;;;;;;46.28;21.33;;;;;;;1.97;78.62;100377.44;5588696;31;34134;-62
2022/03/04 05:27:52;;;;;;;41.47;24.25;;;;;;;1.93;78.61;100375.16;5588815;31;34272;-62
2022/03/04 05:30:55;;;;;;;42.83;23.27;;;;;;;1.95;77.81;100375.87;5587921;31;34595;-62
2022/03/04 05:33:58;;;;;;;45.17;24.37;;;;;;;2.06;77.21;100376.75;5588121;31;33853;-62
2022/03/04 05:37:00;;;;;;;43.95;23.73;;;;;;;1.92;78.22;100381.34;5588671;31;33948;-63
2022/03/04 05:40:04;;;;;;;46.90;24.52;;;;;;;1.93;77.30;100386.47;5588570;31;34389;-63
2022/03/04 05:43:08;;;;;;;42.65;24.42;;;;;;;1.98;77.14;100392.19;5589439;31;33356;-63
2022/03/04 05:46:11;;;;;;;47.60;25.15;;;;;;;1.97;76.29;100398.38;5590928;31;34590;-63
2022/03/04 05:49:14;;;;;;;47.85;25.55;;;;;;;2.01;75.82;100401.59;5590899;31;33809;-63
2022/03/04 05:52:16;;;;;;;49.17;25.98;;;;;;;2.06;75.65;100409.94;5590495;31;34727;-63
2022/03/04 05:55:19;;;;;;;52.88;26.08;;;;;;;1.98;75.93;100410.50;5590699;31;34268;-63
2022/03/04 05:58:22;;;;;;;46.85;24.40;;;;;;;2.02;76.17;100411.94;5590831;31;34529;-63
2022/03/04 06:01:24;;;;;;;48.13;25.58;;;;;;;2.03;76.01;100418.81;5591184;31;34521;-63
2022/03/04 06:04:27;;;;;;;47.40;25.45;;;;;;;2.18;75.38;100420.31;5591069;31;34615;-63
2022/03/04 06:07:33;;;;;;;48.00;25.70;;;;;;;2.05;76.34;100422.19;5590791;31;34083;-63
2022/03/04 06:10:36;;;;;;;46.53;24.70;;;;;;;2.14;76.12;100418.03;5589943;31;34081;-62
2022/03/04 06:13:39;;;;;;;45.28;23.00;;;;;;;2.14;75.88;100424.13;5590665;31;34287;-63
2022/03/04 06:16:42;;;;;;;46.28;23.20;;;;;;;2.18;76.11;100422.09;5591076;31;34517;-62
2022/03/04 06:19:44;;;;;;;45.12;22.95;;;;;;;2.19;75.63;100431.62;5590478;31;33994;-62
2022/03/04 06:22:48;;;;;;;45.78;23.35;;;;;;;2.19;75.69;100445.56;5590650;31;34097;-62
2022/03/04 06:25:51;;;;;;;45.60;24.83;;;;;;;2.31;75.32;100435.12;5590554;31;34159;-62
2022/03/04 06:28:53;;;;;;;39.47;23.08;;;;;;;2.33;75.12;100441.06;5590362;31;34002;-63
2022/03/04 06:31:56;;;;;;;50.63;25.17;;;;;;;2.33;74.87;100451.53;5590350;31;33831;-62
2022/03/04 06:34:59;;;;;;;47.88;25.75;;;;;;;2.39;74.32;100449.31;5590393;31;33776;-62
2022/03/04 06:38:01;;;;;;;49.78;25.62;;;;;;;2.55;73.90;100447.22;5590476;31;33946;-63
2022/03/04 06:41:05;;;;;;;76.70;29.37;;;;;;;2.65;73.25;100449.16;5590554;31;34010;-62
2022/03/04 06:44:08;;;;;;;57.90;26.83;;;;;;;2.69;72.42;100453.22;5589709;31;33987;-63
2022/03/04 06:47:10;;;;;;;48.22;24.60;;;;;;;2.77;71.97;100454.28;5589672;31;34583;-63
2022/03/04 06:50:13;;;;;;;46.03;24.10;;;;;;;2.77;71.37;100458.69;5589759;31;34691;-62
2022/03/04 06:53:22;;;;;;;49.03;25.62;;;;;;;2.61;71.88;100451.97;5589750;31;34589;-63
2022/03/04 06:56:24;;;;;;;51.22;24.73;;;;;;;2.65;71.63;100457.84;5589942;31;34553;-63
2022/03/04 06:59:27;;;;;;;58.42;24.30;;;;;;;2.74;71.28;100466.78;5589530;31;34307;-62
2022/03/04 07:02:30;;;;;;;50.15;26.05;;;;;;;2.68;71.33;100465.47;5590210;31;33896;-62
2022/03/04 07:05:34;;;;;;;52.70;25.95;;;;;;;2.34;76.57;100472.38;5589138;31;33131;-63
2022/03/04 07:08:37;;;;;;;52.97;26.58;;;;;;;2.20;83.24;100480.41;5589492;31;34676;-62
2022/03/04 07:11:40;;;;;;;55.28;28.75;;;;;;;1.97;87.26;100483.88;5589657;31;34080;-63
2022/03/04 07:14:43;;;;;;;57.50;26.67;;;;;;;1.72;92.09;100483.00;5589987;31;33871;-63
2022/03/04 07:17:47;;;;;;;52.95;27.25;;;;;;;1.71;94.49;100489.19;5589924;31;34675;-62
2022/03/04 07:20:50;;;;;;;59.83;27.58;;;;;;;1.33;97.82;100496.25;5589730;31;34567;-63
2022/03/04 07:23:52;;;;;;;54.45;27.10;;;;;;;1.48;97.71;100502.19;5589695;31;35059;-64
2022/03/04 07:26:55;;;;;;;58.40;31.02;;;;;;;1.61;97.61;100503.00;5589900;31;34222;-62
2022/03/04 07:29:58;;;;;;;59.33;31.62;;;;;;;1.69;99.09;100501.50;5589278;31;33960;-64
2022/03/04 07:33:02;;;;;;;54.03;30.90;;;;;;;1.83;99.32;100504.94;5589864;31;34663;-64
2022/03/04 07:36:05;;;;;;;55.58;28.73;;;;;;;2.02;97.84;100505.31;5588907;31;33889;-63
2022/03/04 07:39:07;;;;;;;55.22;29.77;;;;;;;2.05;95.41;100513.75;5589176;31;34108;-63
2022/03/04 07:42:10;;;;;;;52.58;29.10;;;;;;;2.11;95.79;100512.50;5589226;31;34042;-64
2022/03/04 07:45:14;;;;;;;60.70;29.42;;;;;;;2.32;92.88;100518.78;5589965;31;33984;-63
2022/03/04 07:48:17;;;;;;;51.90;29.50;;;;;;;2.35;94.63;100520.34;5589997;31;33908;-62
2022/03/04 07:51:19;;;;;;;52.47;29.33;;;;;;;2.33;91.00;100517.81;5589824;31;34701;-62
2022/03/04 07:54:22;;;;;;;50.90;28.45;;;;;;;2.53;92.02;100514.59;5589040;31;34113;-62
2022/03/04 07:57:25;;;;;;;48.72;27.70;;;;;;;2.66;91.62;100517.16;5589577;31;34123;-62
2022/03/04 08:00:28;;;;;;;50.25;27.35;;;;;;;2.94;89.65;100514.13;5589533;31;33886;-62
2022/03/04 08:03:31;;;;;;;52.17;27.67;;;;;;;3.25;84.75;100525.72;5589347;31;34290;-62
2022/03/04 08:06:34;;;;;;;47.10;24.90;;;;;;;3.31;84.59;100524.41;5588617;31;34289;-62
2022/03/04 08:09:37;;;;;;;46.80;25.92;;;;;;;3.34;82.12;100529.44;5589667;31;33963;-62
2022/03/04 08:12:39;;;;;;;47.62;25.42;;;;;;;3.81;79.54;100523.09;5589635;31;34022;-63
2022/03/04 08:15:43;;;;;;;50.30;26.50;;;;;;;3.97;79.03;100534.03;5589488;31;33988;-63
2022/03/04 08:18:47;;;;;;;46.35;25.35;;;;;;;4.31;79.32;100527.75;5589627;31;33947;-63
2022/03/04 08:21:49;;;;;;;50.00;24.95;;;;;;;4.50;74.98;100532.37;5589668;31;34269;-63
2022/03/04 08:25:12;;;;;;;46.05;25.00;;;;;;;4.22;74.37;100531.13;5589523;31;34466;-63
2022/03/04 08:28:15;;;;;;;49.78;24.63;;;;;;;4.56;77.75;100529.22;5589442;31;35350;-62
2022/03/04 08:31:17;;;;;;;43.65;23.65;;;;;;;4.83;71.15;100526.13;5589341;31;34205;-63
2022/03/04 08:34:20;;;;;;;43.40;23.15;;;;;;;5.15;70.85;100526.03;5589441;31;34439;-63
2022/03/04 08:37:23;;;;;;;40.75;22.75;;;;;;;5.11;69.76;100530.75;5589447;31;33958;-63
2022/03/04 08:40:26;;;;;;;47.62;24.35;;;;;;;4.98;72.62;100529.28;5589384;31;35281;-63
2022/03/04 08:43:31;;;;;;;42.80;23.08;;;;;;;4.98;72.70;100526.66;5589431;31;33873;-63
2022/03/04 08:46:36;;;;;;;47.33;24.73;;;;;;;5.05;69.38;100530.41;5589123;31;34025;-63
2022/03/04 08:49:38;;;;;;;43.17;23.62;;;;;;;5.27;72.53;100526.81;5589557;31;34683;-63
2022/03/04 08:52:41;;;;;;;43.50;23.58;;;;;;;4.86;72.39;100530.28;5589159;31;34552;-63
2022/03/04 08:55:45;;;;;;;43.78;23.12;;;;;;;4.59;73.32;100534.25;5588472;31;35157;-62
2022/03/04 08:58:48;;;;;;;47.47;24.37;;;;;;;4.50;73.48;100535.00;5589072;31;35446;-63
2022/03/04 09:01:51;;;;;;;43.87;23.58;;;;;;;4.36;76.42;100543.13;5589106;31;34095;-63
2022/03/04 09:04:54;;;;;;;45.65;23.30;;;;;;;4.64;73.15;100539.97;5589399;31;33924;-63
2022/03/04 09:07:57;;;;;;;44.15;23.08;;;;;;;4.94;71.37;100541.81;5588863;31;33973;-63
2022/03/04 09:11:00;;;;;;;44.33;23.70;;;;;;;5.20;70.56;100537.84;5589062;31;34711;-63
2022/03/04 09:14:03;;;;;;;44.03;24.02;;;;;;;5.06;71.99;100535.56;5589011;31;33852;-63
2022/03/04 09:17:06;;;;;;;41.85;22.40;;;;;;;5.41;68.69;100545.72;5588625;31;33958;-63
2022/03/04 09:20:09;;;;;;;43.08;22.33;;;;;;;5.99;66.37;100546.00;5589174;31;33958;-63
2022/03/04 09:23:13;;;;;;;37.38;21.37;;;;;;;5.82;64.82;100550.03;5589114;31;33888;-63
2022/03/04 09:26:15;;;;;;;36.05;20.52;;;;;;;6.31;61.74;100543.97;5588713;31;34618;-63
2022/03/04 09:29:18;;;;;;;36.38;21.90;;;;;;;6.14;60.32;100543.81;5588188;31;34394;-63
2022/03/04 09:32:21;;;;;;;42.10;21.23;;;;;;;6.25;61.47;100560.31;5588490;31;35131;-64
2022/03/04 09:35:24;;;;;;;40.88;22.08;;;;;;;5.26;64.24;100552.28;5588477;31;34451;-63
2022/03/04 09:38:27;;;;;;;38.80;21.15;;;;;;;5.53;63.50;100549.09;5588649;31;34103;-63
2022/03/04 09:41:31;;;;;;;40.35;21.90;;;;;;;5.45;62.66;100555.03;5588326;31;33871;-63
2022/03/04 09:44:33;;;;;;;40.85;20.90;;;;;;;5.91;62.04;100551.91;5588374;31;34089;-63
2022/03/04 09:47:36;;;;;;;40.03;21.77;;;;;;;6.67;58.48;100546.91;5588357;31;34008;-63
2022/03/04 09:50:42;;;;;;;37.63;21.65;;;;;;;6.46;58.36;100552.31;5588241;31;34517;-62
2022/03/04 09:53:45;;;;;;;38.00;20.67;;;;;;;6.44;57.75;100560.34;5588280;31;34701;-62
2022/03/04 09:56:48;;;;;;;45.35;22.42;;;;;;;5.06;62.76;100556.59;5588253;31;33870;-63
2022/03/04 09:59:51;;;;;;;42.88;22.05;;;;;;;5.50;61.10;100560.72;5588467;31;34881;-62
2022/03/04 10:02:56;;;;;;;41.75;21.23;;;;;;;5.22;62.10;100550.88;5587391;31;34501;-63
2022/03/04 10:06:04;;;;;;;33.70;19.98;;;;;;;5.43;62.02;100551.66;5587970;31;34144;-63
2022/03/04 10:09:07;;;;;;;37.08;20.35;;;;;;;5.36;61.36;100550.53;5587850;31;34066;-63
2022/03/04 10:12:13;;;;;;;37.92;21.40;;;;;;;5.39;61.75;100558.16;5587890;31;34223;-63
2022/03/04 10:15:16;;;;;;;41.47;21.73;;;;;;;4.82;63.27;100553.38;5587856;31;34374;-63
2022/03/04 10:18:25;;;;;;;38.05;19.87;;;;;;;5.02;63.47;100555.19;5587886;31;34006;-63
2022/03/04 10:21:53;;;;;;;38.78;20.62;;;;;;;5.34;61.79;100554.25;5587608;31;34579;-63
2022/03/04 10:24:56;;;;;;;33.72;19.58;;;;;;;5.63;61.70;100558.69;5587430;31;33898;-64
2022/03/04 10:28:08;;;;;;;40.35;21.58;;;;;;;5.63;61.12;100555.22;5587217;31;33917;-63
2022/03/04 10:31:11;;;;;;;33.97;19.58;;;;;;;5.27;63.07;100551.31;5592692;31;34210;-63
2022/03/04 10:34:56;;;;;;;40.70;21.05;;;;;;;5.38;61.35;100553.84;5590580;31;34338;-63
2022/03/04 10:37:59;;;;;;;37.65;19.98;;;;;;;5.36;62.28;100549.72;5590025;31;33924;-63
2022/03/04 10:41:24;;;;;;;41.70;21.27;;;;;;;5.34;62.63;100547.19;5590129;31;34630;-62
2022/03/04 10:44:29;;;;;;;42.88;21.10;;;;;;;5.67;60.80;100552.19;5590321;31;34653;-63
2022/03/04 10:47:40;;;;;;;34.55;20.20;;;;;;;6.56;58.84;100550.53;5590505;31;33955;-63
2022/03/04 10:50:46;;;;;;;;;;;;;;;7.27;56.09;100549.19;5591010;31;34868;-62
2022/03/04 10:53:49;;;;;;;37.95;19.75;;;;;;;7.70;54.59;100545.16;5593550;31;34575;-63
2022/03/04 10:56:55;;;;;;;34.35;19.10;;;;;;;6.54;57.92;100545.37;5578530;31;34253;-62
2022/03/04 10:59:58;;;;;;;40.35;20.90;;;;;;;5.95;59.85;100547.22;5590207;31;34201;-64
2022/03/04 11:03:02;;;;;;;36.22;20.45;;;;;;;6.25;59.25;100539.25;5590136;31;34095;-63
2022/03/04 11:06:07;;;;;;;42.75;20.23;;;;;;;7.14;56.37;100542.56;5589894;31;34120;-63
2022/03/04 11:09:15;;;;;;;42.70;21.77;;;;;;;6.63;56.40;100548.19;5590077;31;34089;-63
2022/03/04 11:12:18;;;;;;;41.08;21.50;;;;;;;6.55;56.90;100539.13;5590207;31;34250;-63
2022/03/04 11:15:23;;;;;;;39.33;21.90;;;;;;;6.28;58.17;100540.78;5590200;31;34622;-63
2022/03/04 11:18:25;;;;;;;36.58;20.80;;;;;;;6.29;58.34;100542.47;5589892;31;34059;-62
2022/03/04 11:21:30;;;;;;;41.45;21.90;;;;;;;5.96;59.37;100539.19;5589956;31;33980;-62
2022/03/04 11:24:36;;;;;;;41.15;20.85;;;;;;;5.31;60.93;100539.56;5589215;31;34061;-62
2022/03/04 11:27:45;;;;;;;47.45;24.02;;;;;;;4.37;65.78;100543.03;5589809;31;33870;-63
2022/03/04 11:30:51;;;;;;;43.97;23.08;;;;;;;4.35;67.23;100538.87;5589668;31;34126;-62
2022/03/04 11:33:58;;;;;;;48.45;22.92;;;;;;;4.29;68.27;100534.09;5589626;31;34211;-63
2022/03/04 11:37:03;;;;;;;44.38;22.80;;;;;;;4.51;68.37;100535.81;5589831;31;33958;-63
2022/03/04 11:43:49;;;;;;;42.28;21.98;;;;;;;4.55;68.77;100539.88;5589631;31;34305;-62
2022/03/04 11:46:55;;;;;;;40.83;23.08;;;;;;;4.53;70.30;100539.16;5589463;31;34000;-62
2022/03/04 11:49:57;;;;;;;42.58;23.15;;;;;;;4.67;71.08;100544.94;5589955;31;34682;-63
2022/03/04 11:53:20;;;;;;;41.88;23.83;;;;;;;4.64;71.99;100539.13;5589651;31;34052;-63
2022/03/04 11:56:25;;;;;;;45.63;23.60;;;;;;;4.96;69.97;100536.44;5589588;31;34312;-63
2022/03/04 11:59:29;;;;;;;43.58;24.60;;;;;;;4.81;69.72;100543.81;5589606;31;34706;-63
2022/03/04 12:02:52;;;;;;;43.28;23.83;;;;;;;5.28;67.10;100541.66;5589368;31;34657;-63
2022/03/04 12:06:00;;;;;;;42.35;23.38;;;;;;;4.56;68.36;100544.97;5588985;31;34244;-63
2022/03/04 12:09:29;;;;;;;44.58;23.67;;;;;;;4.62;68.20;100551.53;5589223;31;34624;-63
2022/03/04 12:12:32;;;;;;;46.75;23.58;;;;;;;5.17;66.29;100537.28;5589598;31;34015;-63
2022/03/04 12:15:37;;;;;;;42.30;22.23;;;;;;;5.35;65.84;100542.78;5589402;31;34038;-62
2022/03/04 12:18:43;;;;;;;39.83;22.55;;;;;;;5.22;66.44;100549.09;5589423;31;33839;-62
2022/03/04 12:21:47;;;;;;;43.03;23.08;;;;;;;5.13;67.22;100551.66;5589488;31;34600;-63
2022/03/04 12:24:56;;;;;;;46.17;22.02;;;;;;;5.18;68.24;100555.53;5589471;31;33983;-62
2022/03/04 12:27:59;;;;;;;48.30;23.83;;;;;;;5.24;68.03;100551.56;5589227;31;33816;-62
2022/03/04 12:31:01;;;;;;;40.85;22.37;;;;;;;5.36;67.65;100545.28;5589352;31;33893;-62
2022/03/04 12:34:19;;;;;;;42.13;21.02;;;;;;;5.55;64.82;100552.44;5588779;31;34078;-62
2022/03/04 12:37:23;;;;;;;41.28;21.00;;;;;;;5.74;62.16;100551.69;5589484;31;34317;-63
2022/03/04 12:40:26;;;;;;;42.00;23.20;;;;;;;5.67;62.24;100548.72;5589487;31;33960;-62
2022/03/04 12:43:38;;;;;;;37.42;20.83;;;;;;;5.47;63.26;100550.44;5589121;31;34022;-63
2022/03/04 12:46:44;;;;;;;36.35;20.50;;;;;;;6.11;59.92;100552.78;5588937;31;33908;-62
2022/03/04 12:49:49;;;;;;;40.42;21.92;;;;;;;6.22;59.69;100543.97;5589103;31;33651;-63
2022/03/04 12:52:52;;;;;;;40.80;21.08;;;;;;;6.38;58.80;100550.38;5588676;31;33916;-63
2022/03/04 12:55:56;;;;;;;43.58;22.50;;;;;;;6.53;59.07;100545.53;5588872;31;34005;-63
2022/03/04 12:59:01;;;;;;;40.83;21.65;;;;;;;6.71;57.60;100535.97;5588795;31;34590;-62
2022/03/04 13:02:04;;;;;;;41.75;22.62;;;;;;;7.02;57.26;100543.72;5588581;31;34128;-63
2022/03/04 13:05:07;;;;;;;36.70;21.08;;;;;;;7.41;56.59;100548.75;5588959;31;34011;-63
2022/03/04 13:08:14;;;;;;;40.95;21.10;;;;;;;7.89;53.88;100537.16;5588769;31;34562;-63
2022/03/04 13:11:22;;;;;;;39.78;21.77;;;;;;;7.89;53.27;100533.72;5588793;31;34647;-62
2022/03/04 13:14:25;;;;;;;38.78;20.20;;;;;;;7.47;54.47;100534.16;5588930;31;34033;-63
2022/03/04 13:17:28;;;;;;;38.08;21.77;;;;;;;6.67;56.40;100531.94;5588408;31;34620;-63
2022/03/04 13:20:31;;;;;;;40.33;21.48;;;;;;;6.46;57.93;100529.44;5588677;31;34027;-62
2022/03/04 13:23:34;;;;;;;40.45;21.85;;;;;;;6.83;56.31;100529.56;5588687;31;34385;-62
2022/03/04 13:26:37;;;;;;;38.20;21.83;;;;;;;6.88;55.76;100532.59;5588957;31;34562;-63
2022/03/04 13:29:41;;;;;;;39.47;20.85;;;;;;;7.10;55.82;100526.19;5588767;31;33765;-63
2022/03/04 13:32:46;;;;;;;36.58;20.67;;;;;;;7.52;53.65;100534.56;5588658;31;33972;-63
2022/03/04 13:35:51;;;;;;;38.83;21.77;;;;;;;6.99;55.96;100534.25;5588895;31;35217;-62
2022/03/04 13:39:06;;;;;;;43.60;21.60;;;;;;;7.28;55.40;100535.03;5588481;31;35068;-63
2022/03/04 13:42:26;;;;;;;39.63;20.67;;;;;;;7.47;54.89;100531.50;5588539;31;33891;-64
2022/03/04 13:45:33;;;;;;;41.50;20.88;;;;;;;7.43;54.63;100538.06;5588438;31;35179;-63
2022/03/04 13:48:35;;;;;;;41.35;21.50;;;;;;;7.97;52.78;100528.53;5588298;31;34123;-63
2022/03/04 13:51:40;;;;;;;37.42;21.58;;;;;;;8.03;52.56;100517.38;5588378;31;34586;-62
2022/03/04 13:54:50;;;;;;;35.88;20.30;;;;;;;8.85;50.21;100523.34;5588300;31;33987;-63
2022/03/04 13:57:58;;;;;;;34.85;20.88;;;;;;;9.23;48.97;100524.75;5587971;31;34646;-63
2022/03/04 14:01:04;;;;;;;38.45;21.25;;;;;;;10.11;46.12;100517.41;5588026;31;34547;-63
2022/03/04 14:04:08;;;;;;;34.55;21.33;;;;;;;10.29;46.18;100521.63;5588942;31;33973;-63
2022/03/04 14:07:16;;;;;;;43.30;20.85;;;;;;;11.33;43.50;100529.75;5590560;31;34738;-63
2022/03/04 14:10:20;;;;;;;37.85;20.42;;;;;;;9.22;50.25;100536.31;5590189;31;34145;-64